Time;durP1;ratioP1;P1;durP2;ratioP2;P2;SDS_P1;SDS_P2;PMS_P1;PMS_P2;Temp;Humidity;BMP_temperature;BMP_pressure;BME280_temperature;BME280_humidity;BME280_pressure;Samples;Min_cycle;Max_cycle;Signal;HPM_P1;HPM_P2
2024/01/30 00:01:13;;;;;;;27.85;13.00;;;7.10;93.70;;;;;;5053756;28;20025;-75
2024/01/30 00:03:38;;;;;;;29.42;13.85;;;6.90;93.20;;;;;;5053295;28;20033;-74
2024/01/30 00:06:04;;;;;;;24.77;13.25;;;7.00;93.00;;;;;;5053289;28;20033;-77
2024/01/30 00:08:29;;;;;;;28.65;14.18;;;7.00;93.00;;;;;;5053565;28;20048;-77
2024/01/30 00:10:55;;;;;;;27.45;13.18;;;7.00;92.20;;;;;;5053206;28;20040;-75
2024/01/30 00:13:21;;;;;;;27.08;13.40;;;7.00;91.50;;;;;;5052966;28;20059;-76
2024/01/30 00:15:46;;;;;;;28.05;13.38;;;6.90;91.60;;;;;;5053164;28;20029;-76
2024/01/30 00:18:12;;;;;;;35.28;13.20;;;6.80;91.80;;;;;;5052463;28;20036;-76
2024/01/30 00:20:38;;;;;;;30.40;14.10;;;6.80;91.60;;;;;;5052825;28;20029;-76
2024/01/30 00:23:04;;;;;;;24.85;13.15;;;6.70;92.90;;;;;;5052942;28;20048;-75
2024/01/30 00:25:30;;;;;;;24.17;13.25;;;6.60;94.70;;;;;;5053115;28;20031;-77
2024/01/30 00:27:56;;;;;;;32.47;14.48;;;6.60;94.90;;;;;;5052384;28;20096;-76
2024/01/30 00:30:21;;;;;;;27.25;13.02;;;6.60;95.00;;;;;;5052978;28;20040;-76
2024/01/30 00:32:47;;;;;;;25.10;13.05;;;6.50;95.80;;;;;;5051875;28;20083;-76
2024/01/30 00:35:12;;;;;;;24.52;12.57;;;6.60;96.70;;;;;;5052450;28;20029;-74
2024/01/30 00:37:38;;;;;;;24.77;13.00;;;6.50;97.10;;;;;;5052359;28;20460;-75
2024/01/30 00:40:05;;;;;;;27.40;13.70;;;6.60;96.60;;;;;;5052649;28;20041;-75
2024/01/30 00:42:31;;;;;;;30.73;14.45;;;6.50;96.30;;;;;;5052398;28;20028;-74
2024/01/30 00:44:57;;;;;;;24.85;14.32;;;6.50;94.90;;;;;;5051930;28;20083;-74
2024/01/30 00:47:23;;;;;;;28.95;14.25;;;6.50;96.40;;;;;;5052174;28;20025;-73
2024/01/30 00:49:49;;;;;;;29.15;14.77;;;6.30;96.60;;;;;;5052059;28;20033;-73
2024/01/30 00:52:15;;;;;;;30.70;13.55;;;6.40;97.70;;;;;;5052055;28;20025;-74
2024/01/30 00:54:41;;;;;;;24.48;12.85;;;6.40;97.30;;;;;;5051936;28;20074;-74
2024/01/30 00:57:07;;;;;;;25.15;13.35;;;6.40;98.20;;;;;;5051180;28;20104;-73
2024/01/30 00:59:33;;;;;;;24.58;13.10;;;6.50;97.50;;;;;;5051367;28;20033;-75
2024/01/30 01:01:59;;;;;;;31.00;13.73;;;6.30;96.50;;;;;;5048406;28;20033;-75
2024/01/30 01:04:26;;;;;;;28.17;13.18;;;6.40;95.20;;;;;;5051191;28;20497;-74
2024/01/30 01:06:52;;;;;;;24.90;13.32;;;6.30;95.20;;;;;;5051201;28;20028;-74
2024/01/30 01:09:18;;;;;;;28.48;12.85;;;6.20;95.20;;;;;;5052013;28;20546;-74
2024/01/30 01:11:43;;;;;;;25.20;12.80;;;6.20;96.50;;;;;;5051326;28;20063;-75
2024/01/30 01:14:09;;;;;;;26.77;13.23;;;6.00;97.50;;;;;;5051628;28;20053;-75
2024/01/30 01:16:35;;;;;;;24.42;13.80;;;6.20;98.90;;;;;;5051333;28;20082;-74
2024/01/30 01:19:00;;;;;;;29.67;14.10;;;6.10;99.50;;;;;;5051397;28;20029;-75
2024/01/30 01:21:26;;;;;;;25.45;12.45;;;6.20;98.50;;;;;;5051905;28;20031;-77
2024/01/30 01:23:52;;;;;;;27.90;13.95;;;6.10;99.00;;;;;;5051236;28;20025;-74
2024/01/30 01:26:17;;;;;;;22.90;12.30;;;6.10;98.80;;;;;;5051355;28;20055;-75
2024/01/30 01:28:43;;;;;;;25.88;13.18;;;6.10;98.50;;;;;;5051564;28;20017;-77
2024/01/30 01:31:09;;;;;;;27.13;13.57;;;6.10;98.80;;;;;;5052091;28;20028;-74
2024/01/30 01:33:36;;;;;;;25.75;13.25;;;6.00;98.80;;;;;;5051850;28;20021;-74
2024/01/30 01:36:02;;;;;;;28.08;13.93;;;6.00;98.90;;;;;;5051572;28;20049;-76
2024/01/30 01:38:28;;;;;;;29.08;13.30;;;6.00;99.00;;;;;;5049507;28;20511;-75
2024/01/30 01:40:54;;;;;;;25.40;12.68;;;6.00;99.90;;;;;;5052048;28;20033;-77
2024/01/30 01:43:19;;;;;;;29.40;12.32;;;6.00;99.90;;;;;;5051996;28;20113;-77
2024/01/30 01:45:45;;;;;;;23.33;13.52;;;5.90;99.90;;;;;;5052581;28;20028;-77
2024/01/30 01:48:12;;;;;;;23.58;12.82;;;6.00;99.90;;;;;;5050790;28;20029;-77
2024/01/30 01:50:38;;;;;;;28.15;14.23;;;5.90;99.90;;;;;;5050901;28;20017;-76
2024/01/30 01:53:07;;;;;;;24.70;13.07;;;5.90;99.90;;;;;;5051440;28;20009;-75
2024/01/30 01:55:34;;;;;;;28.10;13.23;;;5.90;99.90;;;;;;5051144;28;20021;-74
2024/01/30 01:57:59;;;;;;;29.08;13.60;;;5.90;99.90;;;;;;5050140;28;20039;-75
2024/01/30 02:00:25;;;;;;;27.30;13.68;;;5.90;99.90;;;;;;5050774;28;20029;-75
2024/01/30 02:02:54;;;;;;;21.67;12.38;;;5.90;99.90;;;;;;5048705;28;20029;-75
2024/01/30 02:05:20;;;;;;;25.00;13.38;;;5.90;99.90;;;;;;5050688;28;20507;-74
2024/01/30 02:07:46;;;;;;;31.15;14.55;;;5.90;99.90;;;;;;5049856;28;20090;-75
2024/01/30 02:10:12;;;;;;;24.60;12.85;;;5.90;99.90;;;;;;5050497;28;20020;-74
2024/01/30 02:12:38;;;;;;;25.90;13.10;;;5.90;99.90;;;;;;5050509;28;20021;-74
2024/01/30 02:15:04;;;;;;;27.48;12.70;;;5.80;99.90;;;;;;5050832;28;20499;-75
2024/01/30 02:17:30;;;;;;;26.27;14.15;;;5.90;99.90;;;;;;5051420;28;20047;-73
2024/01/30 02:19:56;;;;;;;26.50;14.10;;;5.90;99.90;;;;;;5051686;28;20132;-74
2024/01/30 02:22:23;;;;;;;24.80;13.32;;;5.90;99.90;;;;;;5051712;28;20068;-73
2024/01/30 02:24:49;;;;;;;25.38;13.43;;;5.90;99.90;;;;;;5051604;28;20032;-74
2024/01/30 02:27:15;;;;;;;27.50;13.48;;;5.90;99.90;;;;;;5051735;28;20024;-76
2024/01/30 02:29:40;;;;;;;21.27;12.95;;;5.90;99.90;;;;;;5051826;28;20064;-74
2024/01/30 02:32:07;;;;;;;23.95;12.75;;;5.90;99.90;;;;;;5051477;28;20101;-73
2024/01/30 02:34:33;;;;;;;27.90;13.43;;;5.90;99.90;;;;;;5051370;28;20055;-74
2024/01/30 02:36:59;;;;;;;24.75;12.50;;;6.10;99.90;;;;;;5051074;28;20021;-74
2024/01/30 02:39:24;;;;;;;24.08;12.75;;;6.00;99.90;;;;;;5051865;28;20095;-77
2024/01/30 02:41:50;;;;;;;23.95;12.50;;;6.00;99.90;;;;;;5052005;28;20029;-76
2024/01/30 02:44:16;;;;;;;21.60;12.40;;;6.00;99.90;;;;;;5053130;28;20495;-77
2024/01/30 02:46:41;;;;;;;23.85;11.88;;;6.00;99.90;;;;;;5051956;28;20033;-76
2024/01/30 02:49:07;;;;;;;24.05;12.18;;;6.10;99.90;;;;;;5051257;28;20044;-77
2024/01/30 02:51:32;;;;;;;26.90;11.60;;;6.00;99.90;;;;;;5064544;28;20040;-72
2024/01/30 02:53:58;;;;;;;23.30;11.88;;;6.10;99.90;;;;;;5066019;28;20462;-74
2024/01/30 02:56:24;;;;;;;21.52;11.98;;;6.00;99.90;;;;;;5055055;28;20029;-74
2024/01/30 02:58:49;;;;;;;20.48;11.70;;;6.00;99.90;;;;;;5054518;28;20214;-73
2024/01/30 03:01:15;;;;;;;27.40;12.63;;;6.00;99.90;;;;;;5052942;28;20104;-75
2024/01/30 03:03:40;;;;;;;28.60;12.25;;;6.00;99.90;;;;;;5055013;28;20096;-75
2024/01/30 03:06:07;;;;;;;22.55;11.15;;;6.00;99.90;;;;;;5055058;28;20079;-75
2024/01/30 03:08:34;;;;;;;21.88;11.52;;;6.00;99.90;;;;;;5053140;28;20021;-74
2024/01/30 03:11:00;;;;;;;26.35;12.68;;;6.00;99.90;;;;;;5060672;28;20476;-74
2024/01/30 03:13:26;;;;;;;26.67;12.27;;;6.00;99.90;;;;;;5075112;28;20029;-73
2024/01/30 03:15:51;;;;;;;26.15;11.18;;;5.90;99.90;;;;;;5064798;28;20025;-75
2024/01/30 03:18:17;;;;;;;21.48;11.68;;;5.90;99.90;;;;;;5073873;28;20029;-74
2024/01/30 03:20:43;;;;;;;23.42;11.60;;;5.90;99.90;;;;;;5074565;28;20020;-76
2024/01/30 03:23:09;;;;;;;27.58;12.00;;;5.80;99.90;;;;;;5074613;28;20426;-77
2024/01/30 03:25:34;;;;;;;23.67;12.32;;;5.80;99.90;;;;;;5074442;28;20029;-76
2024/01/30 03:28:00;;;;;;;22.42;11.45;;;5.80;99.90;;;;;;5073983;28;20028;-75
2024/01/30 03:30:25;;;;;;;22.88;11.18;;;5.80;99.90;;;;;;5074816;28;20059;-77
2024/01/30 03:32:51;;;;;;;24.08;12.30;;;5.80;99.90;;;;;;5074756;28;20023;-78
2024/01/30 03:35:18;;;;;;;21.02;11.35;;;5.80;99.90;;;;;;5074546;28;20074;-75
2024/01/30 03:37:44;;;;;;;22.27;11.75;;;5.80;99.90;;;;;;5073710;28;20036;-76
2024/01/30 03:40:10;;;;;;;23.10;12.05;;;5.80;99.90;;;;;;5074325;28;20037;-76
2024/01/30 03:42:35;;;;;;;24.15;13.02;;;5.80;99.90;;;;;;5074380;28;20488;-76
2024/01/30 03:45:02;;;;;;;26.10;11.55;;;5.70;99.90;;;;;;5074421;28;20095;-73
2024/01/30 03:47:28;;;;;;;21.20;11.40;;;5.70;99.90;;;;;;5063367;28;20036;-74
2024/01/30 03:49:53;;;;;;;22.60;11.38;;;5.60;99.90;;;;;;5054356;28;20099;-73
2024/01/30 03:52:19;;;;;;;25.30;12.27;;;5.60;99.90;;;;;;5054284;28;20025;-74
2024/01/30 03:54:44;;;;;;;25.80;11.90;;;5.50;99.90;;;;;;5053961;28;20032;-74
2024/01/30 03:57:10;;;;;;;25.45;12.70;;;5.50;99.90;;;;;;5053517;28;20071;-75
2024/01/30 03:59:37;;;;;;;22.50;11.45;;;5.50;99.90;;;;;;5054849;28;20075;-76
2024/01/30 04:02:04;;;;;;;22.52;10.75;;;5.40;99.90;;;;;;5053221;28;20025;-75
2024/01/30 04:04:29;;;;;;;21.88;11.60;;;5.40;99.90;;;;;;5053827;28;20043;-75
2024/01/30 04:06:55;;;;;;;20.48;11.65;;;5.40;99.90;;;;;;5053598;28;20025;-78
2024/01/30 04:09:21;;;;;;;27.70;13.30;;;5.40;99.90;;;;;;5054989;28;20096;-77
2024/01/30 04:11:46;;;;;;;24.27;12.30;;;5.40;99.90;;;;;;5054846;28;20029;-77
2024/01/30 04:14:12;;;;;;;20.92;11.10;;;5.40;99.90;;;;;;5055946;28;20025;-77
2024/01/30 04:16:37;;;;;;;24.85;12.20;;;5.50;99.90;;;;;;5053935;28;20029;-75
2024/01/30 04:19:03;;;;;;;23.77;12.50;;;5.50;99.90;;;;;;5052569;28;20032;-76
2024/01/30 04:21:28;;;;;;;21.77;11.18;;;5.40;99.90;;;;;;5053749;28;20035;-75
2024/01/30 04:23:54;;;;;;;22.40;11.25;;;5.40;99.90;;;;;;5052140;28;20118;-76
2024/01/30 04:26:19;;;;;;;34.67;16.15;;;5.40;99.90;;;;;;5055585;28;20495;-77
2024/01/30 04:28:45;;;;;;;24.75;12.93;;;5.40;99.90;;;;;;5053146;28;20028;-76
2024/01/30 04:31:11;;;;;;;21.80;11.48;;;5.30;99.90;;;;;;5053572;28;20076;-75
2024/01/30 04:33:37;;;;;;;27.55;12.07;;;5.20;99.90;;;;;;5051808;28;20029;-76
2024/01/30 04:36:08;;;;;;;39.25;15.82;;;5.20;99.90;;;;;;5053992;28;20458;-75
2024/01/30 04:38:34;;;;;;;28.33;13.50;;;5.10;99.90;;;;;;5053524;28;20021;-76
2024/01/30 04:40:59;;;;;;;58.17;19.85;;;5.20;99.90;;;;;;5053327;28;20055;-80
2024/01/30 04:43:26;;;;;;;31.13;14.00;;;5.10;99.90;;;;;;5058696;28;20020;-76
2024/01/30 04:45:51;;;;;;;27.33;12.02;;;5.10;99.90;;;;;;5056081;28;20070;-77
2024/01/30 04:48:17;;;;;;;26.73;11.82;;;5.10;99.90;;;;;;5055381;28;20013;-77
2024/01/30 04:50:43;;;;;;;24.77;12.18;;;5.00;99.90;;;;;;5055349;28;20041;-76
2024/01/30 04:53:08;;;;;;;20.15;11.30;;;5.00;99.90;;;;;;5060166;28;20117;-76
2024/01/30 04:55:36;;;;;;;26.48;12.43;;;5.00;99.90;;;;;;5065112;28;20053;-75
2024/01/30 04:58:01;;;;;;;24.00;12.48;;;5.00;99.90;;;;;;5037798;28;20036;-76
2024/01/30 05:00:27;;;;;;;33.03;14.45;;;5.00;99.90;;;;;;5054831;28;20091;-77
2024/01/30 05:02:54;;;;;;;26.70;12.05;;;5.00;99.90;;;;;;5057446;28;20021;-76
2024/01/30 05:05:21;;;;;;;24.98;12.63;;;5.10;99.90;;;;;;5057972;28;20029;-76
2024/01/30 05:07:47;;;;;;;22.80;12.32;;;5.10;99.90;;;;;;5057754;28;20028;-76
2024/01/30 05:10:13;;;;;;;23.85;12.73;;;5.10;99.90;;;;;;5054552;28;20017;-76
2024/01/30 05:12:39;;;;;;;26.40;12.85;;;5.10;99.90;;;;;;5052721;28;20392;-74
2024/01/30 05:15:05;;;;;;;24.58;13.40;;;5.10;99.90;;;;;;5052916;28;20056;-73
2024/01/30 05:17:30;;;;;;;26.17;13.15;;;5.20;99.90;;;;;;5053212;28;20099;-76
2024/01/30 05:19:56;;;;;;;22.30;11.95;;;5.20;99.90;;;;;;5052556;28;20096;-76
2024/01/30 05:22:21;;;;;;;20.13;11.63;;;5.20;99.90;;;;;;5052583;28;20035;-74
2024/01/30 05:24:47;;;;;;;22.23;12.13;;;5.20;99.90;;;;;;5052418;28;20464;-73
2024/01/30 05:27:16;;;;;;;21.05;11.50;;;5.30;99.90;;;;;;5052007;28;20087;-76
2024/01/30 05:29:41;;;;;;;21.35;12.77;;;5.20;99.90;;;;;;5052049;28;20500;-76
2024/01/30 05:32:07;;;;;;;21.58;12.15;;;5.30;99.90;;;;;;5051991;28;20029;-75
2024/01/30 05:34:33;;;;;;;22.52;12.90;;;5.30;99.90;;;;;;5052216;28;20028;-76
2024/01/30 05:36:58;;;;;;;27.92;13.15;;;5.30;99.90;;;;;;5053157;28;20029;-78
2024/01/30 05:39:24;;;;;;;23.80;13.43;;;5.30;99.90;;;;;;5053256;28;20116;-77
2024/01/30 05:41:50;;;;;;;26.02;13.57;;;5.40;99.90;;;;;;5053058;28;20480;-76
2024/01/30 05:44:15;;;;;;;26.05;14.02;;;5.40;99.90;;;;;;5052951;28;20480;-76
2024/01/30 05:46:41;;;;;;;35.03;14.73;;;5.50;99.90;;;;;;5052056;28;20070;-77
2024/01/30 05:49:07;;;;;;;30.40;15.80;;;5.60;99.90;;;;;;5050342;28;20040;-76
2024/01/30 05:51:32;;;;;;;31.95;15.18;;;5.60;99.90;;;;;;5052035;28;20020;-74
2024/01/30 05:53:58;;;;;;;28.35;14.68;;;5.60;99.90;;;;;;5051624;28;20021;-76
2024/01/30 05:56:24;;;;;;;39.42;15.55;;;5.60;99.90;;;;;;5052357;28;20017;-74
2024/01/30 05:58:52;;;;;;;27.92;15.57;;;5.60;99.90;;;;;;5051010;28;20098;-75
2024/01/30 06:01:18;;;;;;;28.45;15.00;;;5.60;99.90;;;;;;5052618;28;20122;-74
2024/01/30 06:03:43;;;;;;;30.70;14.70;;;5.70;99.90;;;;;;5051442;28;20027;-74
2024/01/30 06:06:09;;;;;;;32.20;13.75;;;5.70;99.90;;;;;;5052465;28;20111;-75
2024/01/30 06:08:35;;;;;;;25.80;14.65;;;5.70;99.90;;;;;;5050979;28;20268;-74
2024/01/30 06:11:00;;;;;;;33.55;14.68;;;5.80;99.90;;;;;;5052166;28;20024;-79
2024/01/30 06:13:26;;;;;;;28.83;14.60;;;5.80;99.90;;;;;;5052626;28;20025;-76
2024/01/30 06:15:52;;;;;;;27.15;15.18;;;5.80;99.90;;;;;;5053392;28;20059;-76
2024/01/30 06:18:18;;;;;;;32.42;15.75;;;5.90;99.90;;;;;;5052639;28;20060;-79
2024/01/30 06:20:44;;;;;;;29.52;14.57;;;5.90;99.90;;;;;;5054341;28;20032;-78
2024/01/30 06:23:10;;;;;;;28.95;15.23;;;6.10;99.90;;;;;;5053130;28;20017;-80
2024/01/30 06:25:35;;;;;;;27.27;14.73;;;6.00;99.90;;;;;;5047729;28;20031;-78
2024/01/30 06:28:01;;;;;;;25.50;13.85;;;6.10;99.90;;;;;;5052616;28;20041;-78
2024/01/30 06:30:26;;;;;;;31.30;14.88;;;6.10;99.90;;;;;;5057673;28;20033;-78
2024/01/30 06:32:52;;;;;;;31.10;15.18;;;6.10;99.90;;;;;;5049820;28;20020;-75
2024/01/30 06:35:18;;;;;;;25.48;14.05;;;6.10;99.90;;;;;;5058297;28;20029;-77
2024/01/30 06:37:43;;;;;;;30.15;14.38;;;6.10;99.90;;;;;;5053563;28;20466;-78
2024/01/30 06:40:09;;;;;;;23.67;14.23;;;6.20;99.90;;;;;;5053021;28;20096;-77
2024/01/30 06:42:35;;;;;;;29.67;15.63;;;6.20;99.90;;;;;;5051938;28;20063;-79
2024/01/30 06:45:01;;;;;;;32.15;15.05;;;6.10;99.90;;;;;;5054935;28;20416;-78
2024/01/30 06:47:26;;;;;;;24.38;14.57;;;6.30;99.90;;;;;;5053621;28;20057;-77
2024/01/30 06:49:52;;;;;;;25.75;14.38;;;6.30;99.90;;;;;;5052554;28;20025;-79
2024/01/30 06:52:17;;;;;;;33.05;14.82;;;6.20;99.90;;;;;;5061353;28;20254;-77
2024/01/30 06:54:43;;;;;;;30.95;16.85;;;6.40;99.90;;;;;;5054069;28;20025;-77
2024/01/30 06:57:11;;;;;;;28.88;15.68;;;6.40;99.90;;;;;;5052843;28;20116;-77
2024/01/30 06:59:43;;;;;;;25.55;14.60;;;6.40;99.90;;;;;;5053294;28;20028;-78
2024/01/30 07:02:09;;;;;;;28.75;14.98;;;6.40;99.90;;;;;;5053394;28;20029;-75
2024/01/30 07:04:35;;;;;;;30.13;14.93;;;6.40;99.90;;;;;;5049746;28;20043;-75
2024/01/30 07:07:00;;;;;;;28.58;15.40;;;6.40;99.90;;;;;;5049169;28;20104;-75
2024/01/30 07:09:26;;;;;;;27.98;15.50;;;6.40;99.90;;;;;;5051989;28;20052;-78
2024/01/30 07:11:53;;;;;;;27.40;14.57;;;6.40;99.90;;;;;;5056803;28;20025;-77
2024/01/30 07:14:19;;;;;;;25.90;14.27;;;6.30;99.90;;;;;;5053252;28;20116;-76
2024/01/30 07:16:44;;;;;;;27.70;14.45;;;6.30;99.90;;;;;;5052210;28;20130;-77
2024/01/30 07:19:10;;;;;;;24.48;14.88;;;6.30;99.90;;;;;;5052406;28;20021;-77
2024/01/30 07:21:35;;;;;;;29.60;14.88;;;6.30;99.90;;;;;;5056098;28;20065;-77
2024/01/30 07:24:01;;;;;;;26.92;15.00;;;6.30;99.90;;;;;;5052668;28;20029;-77
2024/01/30 07:26:26;;;;;;;27.30;15.00;;;6.30;99.90;;;;;;5049382;28;20096;-76
2024/01/30 07:28:52;;;;;;;29.27;14.38;;;6.30;99.90;;;;;;5050982;28;20087;-78
2024/01/30 07:31:20;;;;;;;25.25;13.57;;;6.30;99.90;;;;;;5052095;28;20029;-75
2024/01/30 07:33:46;;;;;;;31.80;15.85;;;6.40;99.90;;;;;;5049027;28;20091;-74
2024/01/30 07:36:11;;;;;;;26.20;14.82;;;6.70;99.90;;;;;;5050804;28;20041;-74
2024/01/30 07:38:37;;;;;;;33.00;15.80;;;7.00;99.90;;;;;;5052798;28;20017;-76
2024/01/30 07:41:03;;;;;;;27.20;15.65;;;7.20;99.90;;;;;;5053994;28;20032;-76
2024/01/30 07:43:28;;;;;;;27.63;15.48;;;7.40;99.90;;;;;;5054344;28;20036;-75
2024/01/30 07:45:54;;;;;;;33.83;16.75;;;7.40;99.90;;;;;;5054939;28;20088;-73
2024/01/30 07:48:19;;;;;;;48.47;19.92;;;7.50;99.90;;;;;;5053580;28;20021;-76
2024/01/30 07:50:45;;;;;;;38.03;16.63;;;7.70;99.90;;;;;;5054384;28;20392;-76
2024/01/30 07:53:11;;;;;;;54.10;22.63;;;7.80;99.90;;;;;;5054387;28;20122;-76
2024/01/30 07:55:36;;;;;;;51.13;21.65;;;7.80;99.90;;;;;;5054849;28;20051;-76
2024/01/30 08:01:27;;;;;;;44.42;19.73;;;7.90;99.90;;;;;;5056555;28;20080;-76
2024/01/30 08:03:53;;;;;;;31.48;14.80;;;8.00;99.60;;;;;;5057191;28;20425;-78
2024/01/30 08:06:19;;;;;;;32.95;15.35;;;7.90;97.10;;;;;;5055293;28;20040;-77
2024/01/30 08:08:45;;;;;;;30.27;15.35;;;7.80;95.40;;;;;;5054796;28;20487;-79
2024/01/30 08:11:10;;;;;;;28.17;14.50;;;7.90;97.00;;;;;;5054802;28;20037;-76
2024/01/30 08:13:36;;;;;;;30.35;16.05;;;7.80;98.00;;;;;;5053943;28;20150;-75
2024/01/30 08:16:01;;;;;;;25.30;14.80;;;7.70;99.10;;;;;;5054270;28;20017;-74
2024/01/30 08:18:27;;;;;;;28.13;15.05;;;7.70;99.40;;;;;;5053131;28;20439;-75
2024/01/30 08:20:53;;;;;;;33.83;16.05;;;7.70;99.90;;;;;;5054650;28;20033;-77
2024/01/30 08:23:18;;;;;;;26.95;15.07;;;7.60;99.90;;;;;;5053941;28;20040;-77
2024/01/30 08:25:44;;;;;;;32.60;16.05;;;7.60;99.90;;;;;;5052944;28;20033;-74
2024/01/30 08:28:09;;;;;;;30.73;16.88;;;7.60;99.90;;;;;;5052390;28;20083;-75
2024/01/30 08:30:35;;;;;;;45.33;17.35;;;7.50;99.90;;;;;;5053032;28;20017;-76
2024/01/30 08:33:01;;;;;;;30.65;17.27;;;7.70;99.90;;;;;;5054651;28;20376;-79
2024/01/30 08:35:26;;;;;;;40.55;18.35;;;7.80;99.90;;;;;;5055097;28;20033;-76
2024/01/30 08:37:54;;;;;;;28.98;16.05;;;7.90;99.90;;;;;;5053604;28;20085;-75
2024/01/30 08:40:20;;;;;;;33.60;16.63;;;7.90;99.60;;;;;;5055506;28;20033;-78
2024/01/30 08:42:45;;;;;;;34.85;16.60;;;8.00;99.70;;;;;;5054362;28;20495;-78
2024/01/30 08:45:11;;;;;;;33.22;14.95;;;8.20;99.70;;;;;;5053870;28;20082;-75
2024/01/30 08:47:37;;;;;;;32.17;16.13;;;8.20;98.80;;;;;;5055069;28;20033;-75
2024/01/30 08:50:02;;;;;;;44.47;16.70;;;8.30;97.10;;;;;;5056374;28;20032;-74
2024/01/30 08:52:28;;;;;;;33.42;16.70;;;8.30;96.40;;;;;;5056162;28;20032;-77
2024/01/30 08:54:54;;;;;;;33.45;16.23;;;8.30;97.00;;;;;;5054387;28;20032;-77
2024/01/30 08:57:19;;;;;;;38.97;16.65;;;8.30;97.20;;;;;;5054021;28;20021;-75
2024/01/30 08:59:46;;;;;;;30.73;15.98;;;8.40;98.60;;;;;;5056394;28;20031;-78
2024/01/30 09:02:13;;;;;;;38.03;16.23;;;8.60;96.10;;;;;;5056418;28;20056;-76
2024/01/30 09:04:39;;;;;;;36.40;16.42;;;8.80;94.70;;;;;;5055209;28;20028;-76
2024/01/30 09:07:08;;;;;;;33.85;15.98;;;9.00;91.70;;;;;;5053355;28;20025;-77
2024/01/30 09:09:34;;;;;;;27.08;15.45;;;9.10;90.90;;;;;;5053922;28;20172;-77
2024/01/30 09:12:04;;;;;;;26.95;14.70;;;9.10;88.30;;;;;;5053842;28;20067;-78
2024/01/30 09:14:30;;;;;;;29.63;16.40;;;9.20;83.20;;;;;;5054770;28;20021;-77
2024/01/30 09:16:56;;;;;;;36.20;15.88;;;9.30;79.80;;;;;;5055306;28;20032;-76
2024/01/30 09:19:21;;;;;;;31.15;16.42;;;9.30;81.20;;;;;;5054068;28;20032;-77
2024/01/30 09:21:47;;;;;;;34.35;16.75;;;9.40;81.40;;;;;;5056327;28;20029;-74
2024/01/30 09:24:13;;;;;;;33.75;15.77;;;9.40;84.40;;;;;;5052760;28;20511;-76
2024/01/30 09:26:38;;;;;;;28.02;15.40;;;9.50;82.30;;;;;;5052665;28;20017;-75
2024/01/30 09:29:04;;;;;;;28.75;15.35;;;9.80;73.10;;;;;;5052584;28;20021;-78
2024/01/30 09:31:29;;;;;;;25.88;14.32;;;9.90;63.80;;;;;;5052905;28;20021;-75
2024/01/30 09:33:55;;;;;;;33.92;17.33;;;10.00;65.80;;;;;;5052529;28;20488;-75
2024/01/30 09:36:21;;;;;;;34.60;15.65;;;10.10;60.30;;;;;;5052535;28;20028;-75
2024/01/30 09:38:47;;;;;;;32.72;17.38;;;10.20;54.20;;;;;;5050563;28;20064;-75
2024/01/30 09:41:13;;;;;;;29.00;15.32;;;10.00;41.80;;;;;;5052764;28;20060;-73
2024/01/30 09:43:40;;;;;;;39.20;16.48;;;9.90;55.80;;;;;;5052301;28;20437;-74
2024/01/30 09:46:07;;;;;;;32.55;17.33;;;10.00;53.30;;;;;;5052176;28;20087;-75
2024/01/30 09:48:34;;;;;;;32.30;15.60;;;10.00;48.50;;;;;;5052888;28;20029;-73
2024/01/30 09:51:00;;;;;;;33.17;15.75;;;10.10;57.30;;;;;;5053388;28;20032;-81
2024/01/30 09:53:26;;;;;;;27.17;16.00;;;10.10;52.70;;;;;;5053636;28;20391;-73
2024/01/30 09:55:52;;;;;;;32.42;16.10;;;10.20;53.50;;;;;;5052967;28;20029;-74
2024/01/30 09:58:17;;;;;;;26.15;15.13;;;10.40;45.60;;;;;;5053215;28;20393;-77
2024/01/30 10:00:43;;;;;;;34.60;15.60;;;10.40;45.70;;;;;;5053231;28;20333;-75
2024/01/30 10:03:09;;;;;;;31.58;15.35;;;10.60;40.30;;;;;;5053788;28;20021;-77
2024/01/30 10:05:37;;;;;;;30.17;16.60;;;10.80;25.50;;;;;;5055451;28;20017;-77
2024/01/30 10:08:08;;;;;;;33.13;15.93;;;10.80;19.50;;;;;;5052883;28;20039;-76
2024/01/30 10:10:34;;;;;;;39.38;17.17;;;10.90;14.90;;;;;;5053247;28;20029;-76
2024/01/30 10:13:00;;;;;;;29.30;15.57;;;11.00;17.20;;;;;;5055284;28;20017;-77
2024/01/30 10:15:27;;;;;;;30.08;16.70;;;11.00;9.50;;;;;;5056913;28;20048;-77
2024/01/30 10:17:53;;;;;;;31.10;16.05;;;10.90;17.70;;;;;;5051372;28;20021;-77
2024/01/30 10:20:19;;;;;;;77.20;31.10;;;10.80;14.80;;;;;;5051794;28;20036;-78
2024/01/30 10:22:45;;;;;;;28.92;17.02;;;10.60;41.80;;;;;;5051273;28;20049;-75
2024/01/30 10:25:11;;;;;;;30.38;16.20;;;10.70;35.70;;;;;;5051570;28;20427;-74
2024/01/30 10:27:39;;;;;;;32.60;15.95;;;10.80;37.40;;;;;;5052279;28;20029;-75
2024/01/30 10:30:05;;;;;;;25.98;15.65;;;10.80;25.40;;;;;;5051881;28;20029;-74
2024/01/30 10:32:31;;;;;;;30.08;15.75;;;10.80;32.60;;;;;;5051863;28;20022;-75
2024/01/30 10:34:56;;;;;;;38.08;19.10;;;10.60;41.30;;;;;;5052086;28;20063;-79
2024/01/30 10:37:25;;;;;;;32.58;15.93;;;10.70;45.10;;;;;;5052230;28;20064;-75
2024/01/30 10:39:56;;;;;;;37.30;16.67;;;10.70;45.80;;;;;;5052136;28;20029;-77
2024/01/30 10:42:27;;;;;;;27.23;15.85;;;10.80;37.20;;;;;;5053341;28;20029;-78
2024/01/30 10:45:18;;;;;;;30.42;15.80;;;10.80;39.60;;;;;;5052534;28;20029;-76
2024/01/30 10:47:49;;;;;;;27.98;15.23;;;10.90;45.20;;;;;;5051901;28;20100;-75
2024/01/30 10:50:15;;;;;;;28.15;16.00;;;10.90;39.20;;;;;;5054099;28;20095;-76
2024/01/30 10:52:42;;;;;;;37.13;15.98;;;11.00;38.90;;;;;;5060602;28;20044;-77
2024/01/30 10:55:08;;;;;;;30.75;17.42;;;11.00;33.10;;;;;;5053053;28;20100;-77
2024/01/30 10:57:37;;;;;;;31.17;14.98;;;11.00;39.60;;;;;;5054129;28;20388;-77
2024/01/30 11:00:11;;;;;;;27.23;15.00;;;11.10;41.00;;;;;;5054642;28;20116;-77
2024/01/30 11:02:43;;;;;;;41.92;14.90;;;11.20;41.80;;;;;;5058065;28;20033;-75
2024/01/30 11:05:09;;;;;;;35.67;16.40;;;11.40;32.10;;;;;;5060122;28;20036;-77
2024/01/30 11:07:35;;;;;;;35.17;15.40;;;11.40;28.70;;;;;;5068676;28;20106;-75
2024/01/30 11:10:06;;;;;;;26.30;15.10;;;11.40;31.60;;;;;;5074571;28;20013;-74
2024/01/30 11:12:37;;;;;;;33.70;15.88;;;11.30;34.70;;;;;;5076156;28;20014;-75
2024/01/30 11:15:07;;;;;;;30.15;15.00;;;11.20;40.80;;;;;;5075811;28;20033;-74
2024/01/30 11:18:05;;;;;;;31.65;13.98;;;11.10;49.20;;;;;;5076900;28;20013;-76
2024/01/30 11:20:32;;;;;;;25.80;13.65;;;11.20;46.40;;;;;;5033189;28;20043;-76
2024/01/30 11:22:59;;;;;;;28.75;14.77;;;11.20;47.50;;;;;;5055744;28;20035;-75
2024/01/30 11:25:25;;;;;;;31.85;14.05;;;11.10;48.50;;;;;;5056493;28;20029;-76
2024/01/30 11:27:53;;;;;;;30.08;14.88;;;11.20;50.10;;;;;;5052007;28;20028;-77
2024/01/30 11:30:26;;;;;;;27.65;14.95;;;11.00;54.10;;;;;;5052991;28;20036;-78
2024/01/30 11:33:04;;;;;;;30.33;14.70;;;11.00;60.10;;;;;;5054769;28;20113;-77
2024/01/30 11:35:33;;;;;;;32.65;15.75;;;11.00;61.10;;;;;;5054913;28;20036;-76
2024/01/30 11:38:00;;;;;;;28.75;15.02;;;11.00;63.20;;;;;;5051198;28;20112;-76
2024/01/30 11:40:30;;;;;;;32.45;15.02;;;11.00;62.50;;;;;;5052847;28;20075;-77
2024/01/30 11:42:58;;;;;;;28.20;15.05;;;11.10;60.80;;;;;;5052022;28;20029;-76
2024/01/30 11:45:23;;;;;;;27.35;14.63;;;11.00;62.30;;;;;;5052341;28;20037;-76
2024/01/30 11:47:49;;;;;;;28.17;15.38;;;10.90;68.70;;;;;;5051459;28;20530;-74
2024/01/30 11:50:15;;;;;;;29.10;14.55;;;10.90;70.30;;;;;;5051664;28;20468;-75
2024/01/30 11:52:41;;;;;;;28.95;13.82;;;10.90;69.60;;;;;;5050632;28;20053;-75
2024/01/30 11:55:08;;;;;;;25.77;13.68;;;11.00;68.60;;;;;;5052111;28;20099;-74
2024/01/30 11:57:35;;;;;;;32.10;14.18;;;11.00;72.20;;;;;;5051831;28;20445;-77
2024/01/30 12:00:04;;;;;;;26.15;14.07;;;10.90;69.50;;;;;;5053428;28;20134;-76
2024/01/30 12:02:29;;;;;;;25.20;13.75;;;10.90;75.70;;;;;;5053441;28;20088;-74
2024/01/30 12:04:55;;;;;;;27.38;14.25;;;10.90;72.40;;;;;;5052684;28;20487;-75
2024/01/30 12:07:21;;;;;;;28.70;13.75;;;10.90;75.00;;;;;;5052495;28;20554;-75
2024/01/30 12:09:54;;;;;;;27.70;12.98;;;10.80;77.00;;;;;;5053927;28;20051;-76
2024/01/30 12:12:25;;;;;;;25.80;13.32;;;10.90;80.10;;;;;;5054328;28;20021;-73
2024/01/30 12:14:51;;;;;;;26.92;13.05;;;10.90;77.80;;;;;;5054448;28;20492;-74
2024/01/30 12:17:30;;;;;;;27.05;14.15;;;10.90;74.80;;;;;;5053983;28;20029;-73
2024/01/30 12:20:13;;;;;;;31.38;15.23;;;10.90;80.40;;;;;;5054232;28;20017;-78
2024/01/30 12:22:47;;;;;;;27.70;14.13;;;10.80;81.80;;;;;;5053812;28;20016;-77
2024/01/30 12:25:18;;;;;;;23.55;13.77;;;10.80;80.10;;;;;;5052752;28;20024;-75
2024/01/30 12:27:46;;;;;;;31.13;15.10;;;10.80;84.20;;;;;;5052352;28;20741;-76
2024/01/30 12:30:13;;;;;;;31.42;14.75;;;10.80;83.10;;;;;;5052486;28;20021;-77
2024/01/30 12:32:42;;;;;;;32.58;15.82;;;10.80;83.90;;;;;;5052573;28;20021;-76
2024/01/30 12:35:12;;;;;;;26.75;14.25;;;10.80;84.10;;;;;;5051644;28;20028;-76